createdAt,value
2023-01-29T00:01:43.889Z,101323.16
2023-01-29T00:06:45.483Z,101330.16
2023-01-29T00:11:47.166Z,101333.78
2023-01-29T00:16:48.744Z,101328.41
2023-01-29T00:21:50.200Z,101326.47
2023-01-29T00:26:52.249Z,101318.63
2023-01-29T00:31:53.820Z,101310.53
2023-01-29T00:37:04.950Z,101305.22
2023-01-29T00:42:25.369Z,101297.38
2023-01-29T00:47:35.969Z,101294.88
2023-01-29T00:52:37.967Z,101282.50
2023-01-29T00:57:39.472Z,101275.53
2023-01-29T01:02:59.325Z,101264.16
2023-01-29T01:08:00.850Z,101267.78
2023-01-29T01:13:04.868Z,101248.59
2023-01-29T01:18:06.770Z,101247.69
2023-01-29T01:23:08.185Z,101234.41
2023-01-29T01:28:10.783Z,101248.28
2023-01-29T01:33:12.263Z,101247.25
2023-01-29T01:38:13.748Z,101253.28
2023-01-29T01:43:15.164Z,101242.50
2023-01-29T01:48:23.173Z,101242.31
2023-01-29T01:53:39.136Z,101235.13
2023-01-29T01:58:45.319Z,101231.38
2023-01-29T02:04:15.213Z,101220.91
2023-01-29T02:09:34.960Z,101223.47
2023-01-29T02:14:40.503Z,101237.63
2023-01-29T02:19:59.545Z,101238.69
2023-01-29T02:25:21.951Z,101247.75
2023-01-29T02:30:45.410Z,101240.41
2023-01-29T02:35:58.707Z,101242.66
2023-01-29T02:41:00.086Z,101243.47
2023-01-29T02:46:11.547Z,101241.47
2023-01-29T02:51:26.167Z,101243.47
2023-01-29T02:56:40.104Z,101237.41
2023-01-29T03:02:01.097Z,101233.72
2023-01-29T03:07:22.436Z,101248.50
2023-01-29T03:12:33.977Z,101246.56
2023-01-29T03:17:48.117Z,101234.03
2023-01-29T03:22:56.035Z,101218.25
2023-01-29T03:28:20.363Z,101227.00
2023-01-29T03:33:26.278Z,101231.38
2023-01-29T03:38:29.752Z,101247.00
2023-01-29T03:43:35.077Z,101235.66
2023-01-29T03:48:38.692Z,101233.06
2023-01-29T03:53:47.911Z,101228.13
2023-01-29T03:59:04.818Z,101216.91
2023-01-29T04:04:26.705Z,101215.69
2023-01-29T04:09:36.570Z,101187.50
2023-01-29T04:14:38.807Z,101214.13
2023-01-29T04:19:40.862Z,101209.81
2023-01-29T04:24:42.734Z,101201.34
2023-01-29T04:30:02.417Z,101203.94
2023-01-29T04:35:22.161Z,101191.94
2023-01-29T04:40:33.674Z,101176.13
2023-01-29T04:46:00.569Z,101166.25
2023-01-29T04:51:11.273Z,101157.69
2023-01-29T04:56:29.878Z,101162.19
2023-01-29T05:01:33.732Z,101162.00
2023-01-29T05:06:36.947Z,101164.78
2023-01-29T05:11:38.438Z,101164.72
2023-01-29T05:16:51.807Z,101161.13
2023-01-29T05:21:53.787Z,101154.97
2023-01-29T05:27:13.861Z,101146.00
2023-01-29T05:32:16.206Z,101142.69
2023-01-29T05:37:17.657Z,101146.25
2023-01-29T05:42:19.539Z,101146.13
2023-01-29T05:47:21.416Z,101148.78
2023-01-29T05:52:22.850Z,101147.91
2023-01-29T05:57:24.298Z,101127.66
2023-01-29T06:02:25.811Z,101128.78
2023-01-29T06:07:27.250Z,101147.19
2023-01-29T06:12:28.689Z,101140.06
2023-01-29T06:17:30.104Z,101143.84
2023-01-29T06:22:33.242Z,101136.69
2023-01-29T06:27:34.696Z,101144.38
2023-01-29T06:32:36.400Z,101150.75
2023-01-29T06:37:38.208Z,101165.81
2023-01-29T06:42:39.613Z,101165.03
2023-01-29T06:47:41.043Z,101166.63
2023-01-29T06:52:42.460Z,101174.97
2023-01-29T06:57:43.860Z,101178.56
2023-01-29T07:02:45.260Z,101193.50
2023-01-29T07:07:46.726Z,101204.38
2023-01-29T07:12:48.146Z,101205.94
2023-01-29T07:18:00.777Z,101210.41
2023-01-29T07:23:02.180Z,101211.09
2023-01-29T07:28:04.323Z,101205.53
2023-01-29T07:33:08.216Z,101210.31
2023-01-29T07:38:11.804Z,101196.41
2023-01-29T07:43:13.549Z,101204.69
2023-01-29T07:48:14.982Z,101195.09
2023-01-29T07:53:16.727Z,101203.88
2023-01-29T07:58:18.284Z,101201.97
2023-01-29T08:03:20.257Z,101180.34
2023-01-29T08:08:21.696Z,101179.22
2023-01-29T08:13:23.273Z,101179.16
2023-01-29T08:18:24.691Z,101177.25
2023-01-29T08:23:26.100Z,101180.53
2023-01-29T08:28:27.625Z,101187.75
2023-01-29T08:33:38.743Z,101171.00
2023-01-29T08:38:40.944Z,101157.31
2023-01-29T08:43:42.388Z,101152.25
2023-01-29T08:48:43.828Z,101137.03
2023-01-29T08:53:45.232Z,101132.41
2023-01-29T08:58:46.714Z,101136.59
2023-01-29T09:03:48.179Z,101141.41
2023-01-29T09:08:49.864Z,101144.59
2023-01-29T09:13:51.396Z,101132.91
2023-01-29T09:18:54.411Z,101142.69
2023-01-29T09:23:55.814Z,101141.88
2023-01-29T09:28:57.307Z,101136.88
2023-01-29T09:33:58.733Z,101138.50
2023-01-29T09:39:00.174Z,101132.91
2023-01-29T09:44:04.211Z,101129.66
2023-01-29T09:49:20.246Z,101106.50
2023-01-29T09:54:27.232Z,101102.25
2023-01-29T09:59:31.715Z,101089.25
2023-01-29T10:04:45.128Z,101090.22
2023-01-29T10:10:11.756Z,101065.44
2023-01-29T10:15:24.759Z,101066.53
2023-01-29T10:20:47.643Z,101052.75
2023-01-29T10:25:49.991Z,101045.28
2023-01-29T10:30:57.835Z,101037.47
2023-01-29T10:36:04.985Z,101033.53
2023-01-29T10:41:27.433Z,101030.97
2023-01-29T10:46:41.350Z,101038.63
2023-01-29T10:52:08.809Z,101017.50
2023-01-29T10:57:29.773Z,101025.19
2023-01-29T11:02:31.258Z,101013.13
2023-01-29T11:07:32.899Z,100994.72
2023-01-29T11:12:38.257Z,100992.63
2023-01-29T11:17:39.797Z,100986.22
2023-01-29T11:22:54.079Z,100986.41
2023-01-29T11:27:57.910Z,100985.03
2023-01-29T11:33:05.472Z,100986.00
2023-01-29T11:38:28.633Z,100965.28
2023-01-29T11:43:31.595Z,100952.13
2023-01-29T11:48:44.693Z,100936.34
2023-01-29T11:53:52.532Z,100933.38
2023-01-29T11:58:57.573Z,100907.22
2023-01-29T12:03:59.917Z,100916.78
2023-01-29T12:09:08.055Z,100913.59
2023-01-29T12:14:36.136Z,100902.47
2023-01-29T12:19:46.405Z,100894.09
2023-01-29T12:24:58.380Z,100872.63
2023-01-29T12:30:24.680Z,100863.97
2023-01-29T12:35:38.423Z,100854.59
2023-01-29T12:40:44.080Z,100858.72
2023-01-29T12:45:52.161Z,100847.97
2023-01-29T12:51:10.187Z,100838.78
2023-01-29T12:56:31.855Z,100840.38
2023-01-29T13:01:50.127Z,100831.38
2023-01-29T13:06:59.367Z,100815.97
2023-01-29T13:12:07.210Z,100810.38
2023-01-29T13:17:16.045Z,100805.00
2023-01-29T13:22:24.404Z,100817.91
2023-01-29T13:27:29.305Z,100810.63
2023-01-29T13:32:34.021Z,100807.13
2023-01-29T13:37:41.888Z,100811.97
2023-01-29T13:42:48.871Z,100812.34
2023-01-29T13:47:51.946Z,100812.34
2023-01-29T13:52:58.008Z,100802.66
2023-01-29T13:58:04.293Z,100796.47
2023-01-29T14:03:11.806Z,100791.59
2023-01-29T14:08:13.184Z,100790.78
2023-01-29T14:13:21.403Z,100792.06
2023-01-29T14:18:26.314Z,100776.47
2023-01-29T14:23:36.210Z,100794.91
2023-01-29T14:28:37.674Z,100785.91
2023-01-29T14:33:43.331Z,100774.88
2023-01-29T14:38:51.906Z,100776.00
2023-01-29T14:44:32.567Z,100773.75
2023-01-29T14:49:54.961Z,100780.00
2023-01-29T14:55:00.889Z,100772.91
2023-01-29T15:00:06.019Z,100772.13
2023-01-29T15:05:18.535Z,100774.41
2023-01-29T15:10:33.112Z,100774.53
2023-01-29T15:15:43.987Z,100761.78
2023-01-29T15:20:45.585Z,100776.94
2023-01-29T15:25:49.783Z,100773.25
2023-01-29T15:30:56.165Z,100771.94
2023-01-29T15:36:08.390Z,100772.16
2023-01-29T15:41:23.766Z,100775.00
2023-01-29T15:46:38.142Z,100779.97
2023-01-29T15:51:39.811Z,100774.88
2023-01-29T15:56:46.142Z,100781.16
2023-01-29T16:01:47.610Z,100771.03
2023-01-29T16:06:52.918Z,100773.13
2023-01-29T16:11:58.274Z,100774.75
2023-01-29T16:17:11.591Z,100783.47
2023-01-29T16:22:14.197Z,100766.84
2023-01-29T16:27:15.691Z,100769.00
2023-01-29T16:32:18.201Z,100757.38
2023-01-29T16:37:19.617Z,100765.72
2023-01-29T16:42:26.541Z,100766.34
2023-01-29T16:47:34.481Z,100756.22
2023-01-29T16:52:36.033Z,100764.31
2023-01-29T16:57:40.019Z,100764.13
2023-01-29T17:02:41.607Z,100745.59
2023-01-29T17:07:45.997Z,100729.53
2023-01-29T17:12:54.224Z,100733.88
2023-01-29T17:17:55.696Z,100723.81
2023-01-29T17:22:57.227Z,100728.00
2023-01-29T17:28:01.506Z,100718.44
2023-01-29T17:33:16.071Z,100725.72
2023-01-29T17:38:25.892Z,100715.06
2023-01-29T17:43:28.490Z,100713.88
2023-01-29T17:48:30.769Z,100707.00
2023-01-29T17:53:44.821Z,100710.41
2023-01-29T17:58:47.223Z,100696.78
2023-01-29T18:03:48.688Z,100689.75
2023-01-29T18:08:50.198Z,100679.31
2023-01-29T18:13:51.717Z,100674.81
2023-01-29T18:18:53.544Z,100686.47
2023-01-29T18:23:54.970Z,100684.41
2023-01-29T18:28:56.387Z,100664.28
2023-01-29T18:33:57.866Z,100657.00
2023-01-29T18:38:59.349Z,100652.75
2023-01-29T18:44:00.812Z,100645.75
2023-01-29T18:49:02.283Z,100646.31
2023-01-29T18:54:04.134Z,100641.09
2023-01-29T18:59:06.655Z,100636.19
2023-01-29T19:04:08.497Z,100626.03
2023-01-29T19:09:10.001Z,100628.31
2023-01-29T19:14:11.483Z,100627.53
2023-01-29T19:19:13.011Z,100630.13
2023-01-29T19:24:14.743Z,100616.06
2023-01-29T19:29:17.716Z,100615.38
2023-01-29T19:34:19.229Z,100606.00
2023-01-29T19:39:20.728Z,100598.81
2023-01-29T19:44:22.191Z,100599.66
2023-01-29T19:49:23.616Z,100597.94
2023-01-29T19:54:27.717Z,100590.81
2023-01-29T19:59:29.132Z,100584.09
2023-01-29T20:04:30.717Z,100575.19
2023-01-29T20:09:32.204Z,100571.66
2023-01-29T20:14:33.979Z,100573.50
2023-01-29T20:19:35.401Z,100563.69
2023-01-29T20:24:39.562Z,100556.34
2023-01-29T20:29:41.119Z,100562.59
2023-01-29T20:34:42.777Z,100548.03
2023-01-29T20:39:44.206Z,100549.34
2023-01-29T20:44:45.738Z,100553.69
2023-01-29T20:49:47.169Z,100546.84
2023-01-29T20:54:48.572Z,100538.47
2023-01-29T20:59:50.147Z,100536.97
2023-01-29T21:04:51.569Z,100543.13
2023-01-29T21:09:52.983Z,100524.56
2023-01-29T21:14:55.455Z,100517.63
2023-01-29T21:19:56.961Z,100512.72
2023-01-29T21:24:58.398Z,100506.63
2023-01-29T21:29:59.913Z,100502.09
2023-01-29T21:35:01.351Z,100497.91
2023-01-29T21:40:06.309Z,100492.56
2023-01-29T21:45:08.561Z,100481.75
2023-01-29T21:50:10.931Z,100481.66
2023-01-29T21:55:12.380Z,100475.91
2023-01-29T22:00:14.261Z,100467.22
2023-01-29T22:05:19.784Z,100456.69
2023-01-29T22:10:22.401Z,100452.94
2023-01-29T22:15:24.230Z,100434.78
2023-01-29T22:20:30.159Z,100444.34
2023-01-29T22:25:32.280Z,100427.97
2023-01-29T22:30:33.868Z,100421.53
2023-01-29T22:35:35.291Z,100411.59
2023-01-29T22:40:36.714Z,100404.59
2023-01-29T22:45:39.495Z,100389.88
2023-01-29T22:50:41.783Z,100364.81
2023-01-29T22:55:43.195Z,100356.78
2023-01-29T23:00:44.896Z,100354.19
2023-01-29T23:05:46.346Z,100339.09
2023-01-29T23:10:47.777Z,100318.72
2023-01-29T23:15:58.394Z,100300.34
2023-01-29T23:20:59.880Z,100299.41
2023-01-29T23:26:22.068Z,100275.72
2023-01-29T23:31:23.935Z,100288.25
2023-01-29T23:36:25.556Z,100283.84
2023-01-29T23:41:27.039Z,100256.75
2023-01-29T23:46:28.498Z,100248.84
2023-01-29T23:51:29.985Z,100247.28
2023-01-29T23:56:32.171Z,100231.84
